UZB1201 UZSK-UTAA
Flight info
| Callsign | UZB1201 |
|---|---|
| Flight time | N/A |
| Altitude | 36000 |
| Route | DERKI1B DERKI A230 DUTAR A117 URABA URA29A |
| Aircraft | A320/M-SDE3FGHIRWY/LB1 |
Departure
| Time | N/A |
|---|---|
| Airport | UZSK |
Arrival
| Time | 2026-04-24 14:49 |
|---|---|
| Airport | Ashgabat International Airport (UTAA) |
| Time | Latitude | Longitude | Altitude | Speed | Heading |
|---|---|---|---|---|---|
| 2026-04-24 13:38 | 38.80997 | 65.77305 | 1234 ft | 0 kts | 75° |
| 2026-04-24 13:41 | 38.81000 | 65.77319 | 1234 ft | 2 kts | 75° |
| 2026-04-24 13:42 | 38.81023 | 65.77348 | 1245 ft | 5 kts | 16° |
| 2026-04-24 13:42 | 38.81066 | 65.77340 | 1241 ft | 6 kts | 346° |
| 2026-04-24 13:42 | 38.81104 | 65.77325 | 1238 ft | 7 kts | 343° |
| 2026-04-24 13:42 | 38.81153 | 65.77307 | 1234 ft | 7 kts | 344° |
| 2026-04-24 13:43 | 38.81192 | 65.77293 | 1234 ft | 5 kts | 344° |
| 2026-04-24 13:43 | 38.81221 | 65.77282 | 1234 ft | 4 kts | 344° |
| 2026-04-24 13:43 | 38.81253 | 65.77259 | 1234 ft | 6 kts | 312° |
| 2026-04-24 13:43 | 38.81279 | 65.77199 | 1234 ft | 12 kts | 296° |
| 2026-04-24 13:44 | 38.81319 | 65.77096 | 1233 ft | 14 kts | 296° |
| 2026-04-24 13:44 | 38.81364 | 65.76976 | 1232 ft | 16 kts | 295° |
| 2026-04-24 13:44 | 38.81352 | 65.76906 | 1232 ft | 5 kts | 181° |
| 2026-04-24 13:44 | 38.81323 | 65.76911 | 1232 ft | 3 kts | 163° |
| 2026-04-24 13:45 | 38.81319 | 65.76912 | 1232 ft | 0 kts | 162° |
| 2026-04-24 13:46 | 38.81319 | 65.76913 | 1232 ft | 0 kts | 162° |
| 2026-04-24 13:46 | 38.81279 | 65.76928 | 1233 ft | 31 kts | 164° |
| 2026-04-24 13:47 | 38.80807 | 65.77101 | 1240 ft | 107 kts | 164° |
| 2026-04-24 13:47 | 38.79895 | 65.77436 | 1246 ft | 165 kts | 165° |
| 2026-04-24 13:47 | 38.78720 | 65.77841 | 1655 ft | 180 kts | 165° |
| 2026-04-24 13:47 | 38.77503 | 65.78250 | 2290 ft | 187 kts | 168° |
| 2026-04-24 13:48 | 38.76186 | 65.78687 | 2597 ft | 208 kts | 166° |
| 2026-04-24 13:48 | 38.74718 | 65.79199 | 2946 ft | 228 kts | 165° |
| 2026-04-24 13:48 | 38.73117 | 65.79728 | 3298 ft | 248 kts | 172° |
| 2026-04-24 13:48 | 38.71357 | 65.79596 | 3700 ft | 267 kts | 201° |
| 2026-04-24 13:49 | 38.69808 | 65.78258 | 4387 ft | 272 kts | 232° |
| 2026-04-24 13:49 | 38.68983 | 65.76118 | 5239 ft | 272 kts | 254° |
| 2026-04-24 13:49 | 38.68443 | 65.73800 | 6156 ft | 274 kts | 254° |
| 2026-04-24 13:49 | 38.67886 | 65.71440 | 7027 ft | 276 kts | 253° |
| 2026-04-24 13:50 | 38.67330 | 65.69106 | 7907 ft | 277 kts | 253° |
| 2026-04-24 13:50 | 38.66759 | 65.66714 | 8806 ft | 280 kts | 253° |
| 2026-04-24 13:50 | 38.66188 | 65.64331 | 9653 ft | 282 kts | 253° |
| 2026-04-24 13:50 | 38.65611 | 65.61926 | 10312 ft | 292 kts | 253° |
| 2026-04-24 13:51 | 38.64986 | 65.59327 | 10557 ft | 316 kts | 253° |
| 2026-04-24 13:51 | 38.64316 | 65.56531 | 10841 ft | 336 kts | 253° |
| 2026-04-24 13:51 | 38.63625 | 65.53659 | 11450 ft | 342 kts | 253° |
| 2026-04-24 13:51 | 38.62915 | 65.50719 | 12188 ft | 346 kts | 253° |
| 2026-04-24 13:52 | 38.62207 | 65.47789 | 12927 ft | 349 kts | 253° |
| 2026-04-24 13:52 | 38.61488 | 65.44822 | 13656 ft | 352 kts | 252° |
| 2026-04-24 13:52 | 38.60763 | 65.41823 | 14314 ft | 355 kts | 252° |
| 2026-04-24 13:52 | 38.60028 | 65.38775 | 14974 ft | 357 kts | 252° |
| 2026-04-24 13:53 | 38.59296 | 65.35741 | 15623 ft | 360 kts | 252° |
| 2026-04-24 13:53 | 38.58550 | 65.32658 | 16261 ft | 362 kts | 252° |
| 2026-04-24 13:53 | 38.57804 | 65.29591 | 16905 ft | 365 kts | 252° |
| 2026-04-24 13:53 | 38.57050 | 65.26501 | 17540 ft | 367 kts | 252° |
| 2026-04-24 13:54 | 38.56283 | 65.23353 | 18172 ft | 370 kts | 252° |
| 2026-04-24 13:54 | 38.55509 | 65.20185 | 18737 ft | 373 kts | 252° |
| 2026-04-24 13:54 | 38.54741 | 65.17029 | 19299 ft | 375 kts | 252° |
| 2026-04-24 13:54 | 38.53966 | 65.13834 | 19878 ft | 377 kts | 253° |
| 2026-04-24 13:55 | 38.53408 | 65.10555 | 20432 ft | 380 kts | 263° |
| 2026-04-24 13:55 | 38.53338 | 65.07208 | 20980 ft | 383 kts | 272° |
| 2026-04-24 13:55 | 38.53514 | 65.03793 | 21527 ft | 385 kts | 272° |
| 2026-04-24 13:55 | 38.53680 | 65.00405 | 22057 ft | 387 kts | 272° |
| 2026-04-24 13:56 | 38.53845 | 64.96953 | 22571 ft | 389 kts | 272° |
| 2026-04-24 13:56 | 38.54008 | 64.93527 | 23075 ft | 391 kts | 272° |
| 2026-04-24 13:56 | 38.54171 | 64.90042 | 23540 ft | 393 kts | 272° |
| 2026-04-24 13:56 | 38.54334 | 64.86527 | 23938 ft | 395 kts | 272° |
| 2026-04-24 13:57 | 38.54494 | 64.83044 | 24337 ft | 397 kts | 272° |
| 2026-04-24 13:57 | 38.54659 | 64.79513 | 24722 ft | 399 kts | 272° |
| 2026-04-24 13:57 | 38.54827 | 64.75955 | 25100 ft | 400 kts | 272° |
| 2026-04-24 13:57 | 38.54990 | 64.72426 | 25461 ft | 402 kts | 272° |
| 2026-04-24 13:58 | 38.55153 | 64.68839 | 25837 ft | 404 kts | 272° |
| 2026-04-24 13:58 | 38.55313 | 64.65244 | 26208 ft | 405 kts | 272° |
| 2026-04-24 13:58 | 38.55472 | 64.61678 | 26561 ft | 407 kts | 272° |
| 2026-04-24 13:58 | 38.55632 | 64.58050 | 26918 ft | 408 kts | 272° |
| 2026-04-24 13:59 | 38.55738 | 64.55635 | 27151 ft | 409 kts | 272° |
| 2026-04-24 13:59 | 38.55951 | 64.50751 | 27601 ft | 412 kts | 272° |
| 2026-04-24 13:59 | 38.56111 | 64.47131 | 27929 ft | 413 kts | 272° |
| 2026-04-24 13:59 | 38.56276 | 64.43448 | 28257 ft | 414 kts | 272° |
| 2026-04-24 14:00 | 38.56438 | 64.39761 | 28563 ft | 416 kts | 272° |
| 2026-04-24 14:00 | 38.56595 | 64.36104 | 28860 ft | 417 kts | 272° |
| 2026-04-24 14:00 | 38.56754 | 64.32381 | 29144 ft | 418 kts | 272° |
| 2026-04-24 14:00 | 38.56912 | 64.28651 | 29426 ft | 419 kts | 272° |
| 2026-04-24 14:01 | 38.57069 | 64.24946 | 29685 ft | 421 kts | 272° |
| 2026-04-24 14:01 | 38.57224 | 64.21242 | 29986 ft | 420 kts | 272° |
| 2026-04-24 14:01 | 38.57380 | 64.17488 | 30300 ft | 419 kts | 272° |
| 2026-04-24 14:01 | 38.57531 | 64.13770 | 30605 ft | 418 kts | 272° |
| 2026-04-24 14:02 | 38.57678 | 64.10111 | 30911 ft | 416 kts | 272° |
| 2026-04-24 14:02 | 38.57826 | 64.06411 | 31223 ft | 415 kts | 272° |
| 2026-04-24 14:02 | 38.57972 | 64.02729 | 31528 ft | 414 kts | 272° |
| 2026-04-24 14:02 | 38.58115 | 63.99097 | 31851 ft | 412 kts | 271° |
| 2026-04-24 14:03 | 38.58257 | 63.95422 | 32163 ft | 411 kts | 271° |
| 2026-04-24 14:03 | 38.58398 | 63.91807 | 32474 ft | 410 kts | 271° |
| 2026-04-24 14:03 | 38.58538 | 63.88161 | 32792 ft | 408 kts | 271° |
| 2026-04-24 14:03 | 38.58674 | 63.84580 | 33100 ft | 407 kts | 271° |
| 2026-04-24 14:04 | 38.58811 | 63.80960 | 33421 ft | 406 kts | 271° |
| 2026-04-24 14:04 | 38.58947 | 63.77359 | 33743 ft | 404 kts | 271° |
| 2026-04-24 14:04 | 38.59084 | 63.73770 | 34019 ft | 403 kts | 271° |
| 2026-04-24 14:04 | 38.59219 | 63.70183 | 34276 ft | 403 kts | 271° |
| 2026-04-24 14:05 | 38.59352 | 63.66653 | 34528 ft | 402 kts | 271° |
| 2026-04-24 14:05 | 38.59483 | 63.63077 | 34771 ft | 402 kts | 271° |
| 2026-04-24 14:05 | 38.59610 | 63.59505 | 35006 ft | 401 kts | 271° |
| 2026-04-24 14:05 | 38.59736 | 63.55937 | 35222 ft | 401 kts | 271° |
| 2026-04-24 14:06 | 38.59819 | 63.53573 | 35368 ft | 401 kts | 271° |
| 2026-04-24 14:06 | 38.59986 | 63.48857 | 35649 ft | 400 kts | 271° |
| 2026-04-24 14:06 | 38.60070 | 63.46496 | 35778 ft | 400 kts | 271° |
| 2026-04-24 14:06 | 38.60197 | 63.42927 | 35851 ft | 401 kts | 271° |
| 2026-04-24 14:07 | 38.60446 | 63.35796 | 35853 ft | 400 kts | 271° |
| 2026-04-24 14:07 | 38.60681 | 63.28721 | 35858 ft | 400 kts | 271° |
| 2026-04-24 14:08 | 38.60914 | 63.21597 | 35857 ft | 399 kts | 271° |
| 2026-04-24 14:08 | 38.61153 | 63.14519 | 35849 ft | 399 kts | 271° |
| 2026-04-24 14:09 | 38.61385 | 63.07451 | 35847 ft | 399 kts | 271° |
| 2026-04-24 14:09 | 38.61608 | 63.00343 | 35849 ft | 399 kts | 271° |
| 2026-04-24 14:10 | 38.61819 | 62.93229 | 35846 ft | 399 kts | 271° |
| 2026-04-24 14:10 | 38.62030 | 62.86154 | 35841 ft | 400 kts | 271° |
| 2026-04-24 14:11 | 38.62240 | 62.79037 | 35849 ft | 400 kts | 271° |
| 2026-04-24 14:12 | 38.62545 | 62.68388 | 35852 ft | 400 kts | 271° |
| 2026-04-24 14:12 | 38.62746 | 62.61272 | 35852 ft | 400 kts | 271° |
| 2026-04-24 14:13 | 38.62944 | 62.54149 | 35859 ft | 400 kts | 271° |
| 2026-04-24 14:13 | 38.63139 | 62.47069 | 35855 ft | 400 kts | 271° |
| 2026-04-24 14:14 | 38.63323 | 62.39934 | 35858 ft | 400 kts | 271° |
| 2026-04-24 14:14 | 38.63583 | 62.29283 | 35853 ft | 400 kts | 271° |
| 2026-04-24 14:15 | 38.63761 | 62.22202 | 35853 ft | 400 kts | 271° |
| 2026-04-24 14:15 | 38.63936 | 62.15061 | 35856 ft | 400 kts | 271° |
| 2026-04-24 14:16 | 38.64097 | 62.07990 | 35857 ft | 400 kts | 271° |
| 2026-04-24 14:17 | 38.64338 | 61.97329 | 35855 ft | 400 kts | 271° |
| 2026-04-24 14:17 | 38.64574 | 61.86668 | 35860 ft | 400 kts | 270° |
| 2026-04-24 14:18 | 38.64730 | 61.79520 | 35857 ft | 401 kts | 270° |
| 2026-04-24 14:18 | 38.64881 | 61.72419 | 35853 ft | 400 kts | 270° |
| 2026-04-24 14:19 | 38.65025 | 61.65293 | 35853 ft | 400 kts | 270° |
| 2026-04-24 14:19 | 38.65156 | 61.58204 | 35862 ft | 400 kts | 270° |
| 2026-04-24 14:20 | 38.65283 | 61.51079 | 35856 ft | 400 kts | 270° |
| 2026-04-24 14:20 | 38.65411 | 61.43954 | 35853 ft | 399 kts | 270° |
| 2026-04-24 14:21 | 38.65178 | 61.36908 | 35855 ft | 399 kts | 259° |
| 2026-04-24 14:21 | 38.63826 | 61.30009 | 35847 ft | 399 kts | 256° |
| 2026-04-24 14:22 | 38.62454 | 61.23115 | 35847 ft | 399 kts | 256° |
| 2026-04-24 14:23 | 38.60384 | 61.12818 | 35841 ft | 400 kts | 256° |
| 2026-04-24 14:23 | 38.58992 | 61.05931 | 35839 ft | 400 kts | 256° |
| 2026-04-24 14:24 | 38.57599 | 60.99064 | 35841 ft | 400 kts | 256° |
| 2026-04-24 14:24 | 38.56201 | 60.92172 | 35847 ft | 400 kts | 256° |
| 2026-04-24 14:25 | 38.54806 | 60.85324 | 35849 ft | 400 kts | 256° |
| 2026-04-24 14:25 | 38.53397 | 60.78435 | 35842 ft | 400 kts | 256° |
| 2026-04-24 14:26 | 38.51992 | 60.71556 | 35843 ft | 400 kts | 256° |
| 2026-04-24 14:26 | 38.50584 | 60.64715 | 35839 ft | 400 kts | 256° |
| 2026-04-24 14:27 | 38.49165 | 60.57839 | 35840 ft | 399 kts | 256° |
| 2026-04-24 14:27 | 38.47756 | 60.51017 | 35838 ft | 399 kts | 256° |
| 2026-04-24 14:28 | 38.46323 | 60.44130 | 35494 ft | 400 kts | 256° |
| 2026-04-24 14:28 | 38.45614 | 60.40732 | 34696 ft | 402 kts | 256° |
| 2026-04-24 14:28 | 38.44890 | 60.37279 | 33937 ft | 402 kts | 256° |
| 2026-04-24 14:28 | 38.44162 | 60.33812 | 33046 ft | 404 kts | 256° |
| 2026-04-24 14:29 | 38.43437 | 60.30336 | 32160 ft | 405 kts | 256° |
| 2026-04-24 14:29 | 38.42717 | 60.26893 | 31263 ft | 408 kts | 256° |
| 2026-04-24 14:29 | 38.41983 | 60.23382 | 30407 ft | 409 kts | 256° |
| 2026-04-24 14:29 | 38.41237 | 60.19841 | 29316 ft | 414 kts | 256° |
| 2026-04-24 14:30 | 38.40740 | 60.17499 | 28930 ft | 410 kts | 256° |
| 2026-04-24 14:30 | 38.39761 | 60.12898 | 28191 ft | 400 kts | 256° |
| 2026-04-24 14:30 | 38.39038 | 60.09484 | 27582 ft | 396 kts | 256° |
| 2026-04-24 14:30 | 38.38327 | 60.06105 | 26980 ft | 392 kts | 256° |
| 2026-04-24 14:31 | 38.37631 | 60.02794 | 26401 ft | 389 kts | 255° |
| 2026-04-24 14:31 | 38.36926 | 59.99464 | 25821 ft | 386 kts | 255° |
| 2026-04-24 14:31 | 38.36223 | 59.96152 | 25242 ft | 384 kts | 255° |
| 2026-04-24 14:31 | 38.35532 | 59.92917 | 24681 ft | 382 kts | 255° |
| 2026-04-24 14:32 | 38.34832 | 59.89645 | 24123 ft | 380 kts | 255° |
| 2026-04-24 14:32 | 38.34133 | 59.86384 | 23554 ft | 380 kts | 255° |
| 2026-04-24 14:32 | 38.33447 | 59.83178 | 22947 ft | 379 kts | 255° |
| 2026-04-24 14:32 | 38.32756 | 59.79941 | 22402 ft | 376 kts | 255° |
| 2026-04-24 14:33 | 38.32071 | 59.76735 | 21903 ft | 373 kts | 255° |
| 2026-04-24 14:33 | 38.31385 | 59.73549 | 21399 ft | 370 kts | 255° |
| 2026-04-24 14:33 | 38.30715 | 59.70447 | 20945 ft | 366 kts | 255° |
| 2026-04-24 14:33 | 38.30044 | 59.67327 | 20479 ft | 363 kts | 254° |
| 2026-04-24 14:34 | 38.29381 | 59.64245 | 20039 ft | 359 kts | 254° |
| 2026-04-24 14:34 | 38.28722 | 59.61182 | 19598 ft | 357 kts | 254° |
| 2026-04-24 14:34 | 38.28063 | 59.58137 | 19165 ft | 354 kts | 254° |
| 2026-04-24 14:34 | 38.27417 | 59.55155 | 18745 ft | 353 kts | 254° |
| 2026-04-24 14:35 | 38.26765 | 59.52150 | 18297 ft | 351 kts | 254° |
| 2026-04-24 14:35 | 38.26114 | 59.49157 | 17815 ft | 349 kts | 254° |
| 2026-04-24 14:35 | 38.25470 | 59.46188 | 17361 ft | 347 kts | 254° |
| 2026-04-24 14:35 | 38.24830 | 59.43232 | 16895 ft | 344 kts | 254° |
| 2026-04-24 14:36 | 38.24193 | 59.40304 | 16440 ft | 342 kts | 254° |
| 2026-04-24 14:36 | 38.23560 | 59.37397 | 15985 ft | 340 kts | 254° |
| 2026-04-24 14:36 | 38.22927 | 59.34502 | 15504 ft | 339 kts | 254° |
| 2026-04-24 14:36 | 38.22194 | 59.31687 | 15003 ft | 338 kts | 246° |
| 2026-04-24 14:37 | 38.21147 | 59.29008 | 14501 ft | 338 kts | 243° |
| 2026-04-24 14:37 | 38.20071 | 59.26338 | 13996 ft | 338 kts | 243° |
| 2026-04-24 14:37 | 38.18998 | 59.23671 | 13474 ft | 338 kts | 243° |
| 2026-04-24 14:37 | 38.17941 | 59.21038 | 12937 ft | 337 kts | 243° |
| 2026-04-24 14:38 | 38.16878 | 59.18383 | 12414 ft | 334 kts | 243° |
| 2026-04-24 14:38 | 38.15824 | 59.15749 | 11897 ft | 332 kts | 243° |
| 2026-04-24 14:38 | 38.14777 | 59.13136 | 11376 ft | 330 kts | 243° |
| 2026-04-24 14:38 | 38.13749 | 59.10581 | 10868 ft | 328 kts | 243° |
| 2026-04-24 14:39 | 38.12714 | 59.08003 | 10467 ft | 322 kts | 243° |
| 2026-04-24 14:39 | 38.11727 | 59.05540 | 10342 ft | 308 kts | 243° |
| 2026-04-24 14:39 | 38.10770 | 59.03165 | 10226 ft | 295 kts | 242° |
| 2026-04-24 14:39 | 38.09848 | 59.00886 | 10102 ft | 283 kts | 242° |
| 2026-04-24 14:40 | 38.08958 | 58.98687 | 9909 ft | 275 kts | 242° |
| 2026-04-24 14:40 | 38.08096 | 58.96557 | 9797 ft | 272 kts | 242° |
| 2026-04-24 14:40 | 38.07231 | 58.94416 | 9675 ft | 271 kts | 242° |
| 2026-04-24 14:40 | 38.06366 | 58.92278 | 9379 ft | 273 kts | 242° |
| 2026-04-24 14:41 | 38.05502 | 58.90142 | 8870 ft | 276 kts | 242° |
| 2026-04-24 14:41 | 38.04618 | 58.87961 | 8421 ft | 276 kts | 242° |
| 2026-04-24 14:41 | 38.03733 | 58.85779 | 7939 ft | 278 kts | 242° |
| 2026-04-24 14:41 | 38.02856 | 58.83612 | 7399 ft | 280 kts | 242° |
| 2026-04-24 14:42 | 38.02259 | 58.82138 | 7012 ft | 278 kts | 242° |
| 2026-04-24 14:42 | 38.01082 | 58.79241 | 6287 ft | 276 kts | 242° |
| 2026-04-24 14:42 | 38.00202 | 58.77077 | 5694 ft | 274 kts | 242° |
| 2026-04-24 14:42 | 37.99340 | 58.74953 | 5170 ft | 274 kts | 242° |
| 2026-04-24 14:43 | 37.98463 | 58.72793 | 4648 ft | 274 kts | 242° |
| 2026-04-24 14:43 | 37.97581 | 58.70619 | 4108 ft | 278 kts | 242° |
| 2026-04-24 14:43 | 37.96702 | 58.68459 | 3671 ft | 278 kts | 242° |
| 2026-04-24 14:43 | 37.95812 | 58.66277 | 3251 ft | 276 kts | 242° |
| 2026-04-24 14:44 | 37.94950 | 58.64164 | 3121 ft | 262 kts | 242° |
| 2026-04-24 14:44 | 37.94130 | 58.62159 | 3012 ft | 249 kts | 242° |
| 2026-04-24 14:44 | 37.93405 | 58.60232 | 2900 ft | 232 kts | 251° |
| 2026-04-24 14:44 | 37.92988 | 58.58372 | 2808 ft | 215 kts | 255° |
| 2026-04-24 14:45 | 37.92719 | 58.57150 | 2747 ft | 211 kts | 253° |
| 2026-04-24 14:45 | 37.92331 | 58.55392 | 2661 ft | 209 kts | 254° |
| 2026-04-24 14:45 | 37.92035 | 58.53598 | 2565 ft | 208 kts | 269° |
| 2026-04-24 14:45 | 37.92426 | 58.51334 | 2556 ft | 184 kts | 297° |
| 2026-04-24 14:46 | 37.93012 | 58.49997 | 2520 ft | 165 kts | 300° |
| 2026-04-24 14:46 | 37.93569 | 58.48754 | 2443 ft | 159 kts | 300° |
| 2026-04-24 14:46 | 37.94110 | 58.47548 | 2303 ft | 156 kts | 301° |
| 2026-04-24 14:46 | 37.94624 | 58.46397 | 2154 ft | 150 kts | 300° |
| 2026-04-24 14:47 | 37.94964 | 58.45639 | 2032 ft | 148 kts | 300° |
| 2026-04-24 14:47 | 37.95634 | 58.44141 | 1789 ft | 145 kts | 300° |
| 2026-04-24 14:47 | 37.96129 | 58.43036 | 1609 ft | 143 kts | 300° |
| 2026-04-24 14:47 | 37.96619 | 58.41946 | 1434 ft | 141 kts | 299° |
| 2026-04-24 14:48 | 37.97101 | 58.40867 | 1213 ft | 140 kts | 300° |
| 2026-04-24 14:48 | 37.97573 | 58.39812 | 1099 ft | 139 kts | 300° |
| 2026-04-24 14:48 | 37.98054 | 58.38738 | 833 ft | 139 kts | 300° |
| 2026-04-24 14:48 | 37.98534 | 58.37687 | 678 ft | 131 kts | 300° |
| 2026-04-24 14:49 | 37.98922 | 58.36806 | 670 ft | 92 kts | 299° |
| 2026-04-24 14:49 | 37.99150 | 58.36291 | 670 ft | 43 kts | 299° |
| 2026-04-24 14:49 | 37.99222 | 58.36123 | 673 ft | 12 kts | 298° |
| 2026-04-24 14:49 | 37.99267 | 58.36018 | 673 ft | 19 kts | 298° |
| 2026-04-24 14:50 | 37.99330 | 58.35856 | 672 ft | 21 kts | 290° |
| 2026-04-24 14:50 | 37.99357 | 58.35671 | 671 ft | 19 kts | 272° |
| 2026-04-24 14:50 | 37.99337 | 58.35513 | 668 ft | 17 kts | 230° |
| 2026-04-24 14:50 | 37.99315 | 58.35489 | 670 ft | 12 kts | 208° |